Погода Черница 1на неделю

Витебская область, Белоруссия

24 - 30 мая
  • 24мая
    Сегодня
    +11°
    +24°
    Ясно и безоблачно
    ВремяПогодаТемператураВлажностьДавлениеВетер, м/сВероятность осадков
    00:00Облачно с прояснениями+16°C73 %753 мм4.5 м/с2 %
    03:00Ясно и безоблачно+14°C64 %754 мм3.9 м/с2 %
    06:00Облачно с прояснениями+12°C69 %755 мм3.9 м/с2 %
    09:00Ясно и безоблачно+17°C60 %755 мм4.6 м/с2 %
    12:00Ясно и безоблачно+21°C50 %756 мм4.7 м/с2 %
    15:00Ясно и безоблачно+24°C44 %755 мм4.9 м/с2 %
    18:00Ясно и безоблачно+24°C46 %754 мм4.6 м/с2 %
    21:00Ясно и безоблачно+19°C59 %755 мм3.4 м/с2 %
  • 25мая
    Суббота
    +10°
    +26°
    Практически безоблачно
    ВремяПогодаТемператураВлажностьДавлениеВетер, м/сВероятность осадков
    00:00Ясно и безоблачно+14°C66 %755 мм3.5 м/с2 %
    03:00Ясно и безоблачно+12°C71 %755 мм3.3 м/с2 %
    06:00Ясно и безоблачно+12°C73 %755 мм3.7 м/с2 %
    09:00Ясно и безоблачно+18°C65 %755 мм3.5 м/с2 %
    12:00Практически безоблачно+23°C53 %755 мм3.5 м/с2 %
    15:00Практически безоблачно+25°C43 %754 мм3.6 м/с6 %
    18:00Облачно с прояснениями+26°C47 %753 мм3.1 м/с25 %
    21:00Небольшая облачность+21°C66 %753 мм1.3 м/с3 %
  • 26мая
    Воскресенье
    +11°
    +26°
    Небольшая облачность
    ВремяПогодаТемператураВлажностьДавлениеВетер, м/сВероятность осадков
    00:00Ясно и безоблачно+15°C80 %753 мм2.2 м/с2 %
    03:00Ясно и безоблачно+12°C83 %753 мм2.2 м/с1 %
    06:00Ясно и безоблачно+12°C79 %753 мм1.1 м/с2 %
    09:00Ясно и безоблачно+19°C59 %754 мм0.5 м/с2 %
    12:00Практически безоблачно+23°C43 %754 мм0.4 м/с2 %
    15:00Небольшая облачность+25°C36 %754 мм1.2 м/с2 %
    18:00Небольшая облачность+25°C42 %753 мм3.3 м/с2 %
    21:00Ясно и безоблачно+19°C69 %753 мм2.6 м/с2 %
  • 27мая
    Понедельник
    +13°
    +26°
    Ясно и безоблачно
    ВремяПогодаТемператураВлажностьДавлениеВетер, м/сВероятность осадков
    00:00Ясно и безоблачно+16°C71 %753 мм1.5 м/с2 %
    03:00Ясно и безоблачно+13°C85 %753 мм2.3 м/с2 %
    06:00Ясно и безоблачно+14°C82 %753 мм1.7 м/с2 %
    09:00Ясно и безоблачно+20°C68 %754 мм1.6 м/с2 %
    12:00Ясно и безоблачно+24°C47 %754 мм2.9 м/с6 %
    15:00Ясно и безоблачно+26°C48 %754 мм2.0 м/с22 %
    18:00Небольшая облачность+25°C62 %753 мм2.3 м/с37 %
    21:00Ясно и безоблачно+21°C81 %753 мм2.0 м/с13 %
  • 28мая
    Вторник
    +13°
    +26°
    Практически безоблачно
    ВремяПогодаТемператураВлажностьДавлениеВетер, м/сВероятность осадков
    00:00Ясно и безоблачно+16°C88 %753 мм2.0 м/с2 %
    03:00Ясно и безоблачно+14°C93 %753 мм1.8 м/с2 %
    06:00Ясно и безоблачно+14°C91 %753 мм2.7 м/с2 %
    09:00Ясно и безоблачно+21°C75 %753 мм3.2 м/с4 %
    12:00Ясно и безоблачно+24°C58 %753 мм3.3 м/с10 %
    15:00Практически безоблачно+25°C54 %753 мм2.5 м/с18 %
    18:00Практически безоблачно+25°C51 %752 мм2.7 м/с17 %
    21:00Практически безоблачно+21°C68 %751 мм1.9 м/с3 %
Мы используем cookies
Соглашаюсь